createdAt,value
2018-06-02T00:01:21.455Z,16.28
2018-06-02T00:03:53.517Z,16.26
2018-06-02T00:06:25.371Z,16.20
2018-06-02T00:09:02.248Z,16.23
2018-06-02T00:11:33.975Z,16.32
2018-06-02T00:14:05.213Z,16.34
2018-06-02T00:16:37.438Z,16.37
2018-06-02T00:19:08.870Z,16.41
2018-06-02T00:21:40.035Z,16.42
2018-06-02T00:24:11.252Z,16.48
2018-06-02T00:26:43.160Z,16.45
2018-06-02T00:29:14.710Z,16.43
2018-06-02T00:31:46.275Z,16.37
2018-06-02T00:34:17.987Z,16.39
2018-06-02T00:36:49.063Z,16.29
2018-06-02T00:39:20.593Z,16.23
2018-06-02T00:41:51.912Z,16.20
2018-06-02T00:44:25.594Z,16.22
2018-06-02T00:46:56.797Z,16.22
2018-06-02T00:49:34.348Z,16.12
2018-06-02T00:52:05.448Z,16.17
2018-06-02T00:54:45.719Z,16.18
2018-06-02T00:57:34.614Z,16.15
2018-06-02T01:00:06.312Z,16.12
2018-06-02T01:02:37.440Z,16.09
2018-06-02T01:05:08.774Z,16.14
2018-06-02T01:10:41.164Z,16.16
2018-06-02T01:13:12.392Z,16.07
2018-06-02T01:15:43.507Z,16.06
2018-06-02T01:18:18.694Z,16.01
2018-06-02T01:20:49.794Z,15.89
2018-06-02T01:23:20.909Z,15.86
2018-06-02T01:25:54.258Z,16.00
2018-06-02T01:28:25.334Z,15.93
2018-06-02T01:30:57.276Z,15.96
2018-06-02T01:33:28.437Z,15.82
2018-06-02T01:36:00.002Z,15.81
2018-06-02T01:38:31.379Z,15.75
2018-06-02T01:41:11.835Z,15.74
2018-06-02T01:43:42.912Z,15.75
2018-06-02T01:46:13.954Z,15.72
2018-06-02T01:48:58.391Z,15.63
2018-06-02T01:51:29.582Z,15.65
2018-06-02T01:54:01.109Z,15.63
2018-06-02T01:56:32.534Z,15.60
2018-06-02T01:59:04.020Z,15.61
2018-06-02T02:01:35.591Z,15.56
2018-06-02T02:04:06.657Z,15.56
2018-06-02T02:06:41.586Z,15.53
2018-06-02T02:09:13.364Z,15.46
2018-06-02T02:11:45.558Z,15.38
2018-06-02T02:17:00.255Z,15.33
2018-06-02T02:19:32.601Z,15.29
2018-06-02T02:25:12.915Z,15.30
2018-06-02T02:27:44.304Z,15.22
2018-06-02T02:30:16.830Z,15.23
2018-06-02T02:32:49.166Z,15.20
2018-06-02T02:35:20.360Z,15.17
2018-06-02T02:37:56.661Z,15.16
2018-06-02T02:40:27.811Z,15.20
2018-06-02T02:42:59.281Z,15.12
2018-06-02T02:45:30.670Z,15.12
2018-06-02T02:48:09.333Z,15.13
2018-06-02T02:50:40.420Z,15.12
2018-06-02T02:53:11.532Z,15.09
2018-06-02T02:55:45.690Z,15.06
2018-06-02T02:58:18.676Z,15.06
2018-06-02T03:00:50.029Z,15.06
2018-06-02T03:03:21.993Z,14.95
2018-06-02T03:05:52.993Z,14.91
2018-06-02T03:08:24.343Z,14.85
2018-06-02T03:10:55.537Z,14.83
2018-06-02T03:13:32.434Z,14.85
2018-06-02T03:16:03.772Z,14.81
2018-06-02T03:18:34.871Z,14.80
2018-06-02T03:21:06.249Z,14.75
2018-06-02T03:23:37.253Z,14.73
2018-06-02T03:26:08.317Z,14.67
2018-06-02T03:28:39.704Z,14.62
2018-06-02T03:31:17.297Z,14.67
2018-06-02T03:33:49.011Z,14.61
2018-06-02T03:36:20.095Z,14.63
2018-06-02T03:38:51.151Z,14.63
2018-06-02T03:41:22.823Z,14.66
2018-06-02T03:43:54.207Z,14.70
2018-06-02T03:46:26.505Z,14.55
2018-06-02T03:48:57.826Z,14.75
2018-06-02T03:51:32.293Z,14.77
2018-06-02T03:54:03.601Z,14.76
2018-06-02T03:56:34.667Z,14.84
2018-06-02T03:59:05.882Z,14.86
2018-06-02T04:01:37.367Z,14.89
2018-06-02T04:04:08.580Z,14.90
2018-06-02T04:06:40.009Z,14.91
2018-06-02T04:09:11.581Z,14.94
2018-06-02T04:11:42.707Z,14.97
2018-06-02T04:14:14.122Z,15.06
2018-06-02T04:16:49.172Z,15.12
2018-06-02T04:19:20.924Z,15.09
2018-06-02T04:23:29.418Z,15.11
2018-06-02T04:26:00.584Z,15.17
2018-06-02T04:28:31.632Z,15.13
2018-06-02T04:31:07.539Z,15.23
2018-06-02T04:33:43.675Z,15.27
2018-06-02T04:36:15.339Z,15.24
2018-06-02T04:38:53.048Z,15.38
2018-06-02T04:41:24.495Z,15.46
2018-06-02T04:43:55.741Z,15.46
2018-06-02T04:46:31.812Z,15.55
2018-06-02T04:49:03.097Z,15.57
2018-06-02T04:51:34.255Z,15.58
2018-06-02T04:54:05.838Z,15.67
2018-06-02T04:56:36.969Z,15.68
2018-06-02T04:59:08.236Z,15.73
2018-06-02T05:01:45.522Z,15.81
2018-06-02T05:04:16.627Z,15.89
2018-06-02T05:06:48.442Z,15.99
2018-06-02T05:09:25.396Z,16.07
2018-06-02T05:11:56.678Z,16.12
2018-06-02T05:14:28.305Z,16.12
2018-06-02T05:17:00.881Z,16.19
2018-06-02T05:19:31.948Z,16.30
2018-06-02T05:22:04.202Z,16.36
2018-06-02T05:24:38.264Z,16.42
2018-06-02T05:27:09.729Z,16.50
2018-06-02T05:32:38.251Z,16.70
2018-06-02T05:35:19.678Z,16.81
2018-06-02T05:37:51.446Z,16.91
2018-06-02T05:40:22.913Z,16.99
2018-06-02T05:43:02.042Z,17.06
2018-06-02T05:45:33.207Z,17.16
2018-06-02T05:48:04.407Z,17.28
2018-06-02T05:50:40.528Z,17.37
2018-06-02T05:53:13.687Z,17.50
2018-06-02T05:55:44.945Z,17.63
2018-06-02T06:01:21.744Z,17.91
2018-06-02T06:03:52.970Z,17.93
2018-06-02T06:06:26.041Z,18.08
2018-06-02T06:08:57.367Z,18.14
2018-06-02T06:12:44.714Z,18.25
2018-06-02T06:15:16.570Z,18.35
2018-06-02T06:18:05.793Z,18.38
2018-06-02T06:22:43.774Z,18.33
2018-06-02T06:25:29.467Z,18.66
2018-06-02T06:28:00.561Z,18.88
2018-06-02T06:30:31.914Z,18.90
2018-06-02T06:33:03.260Z,18.92
2018-06-02T06:35:35.255Z,19.00
2018-06-02T06:38:06.919Z,19.20
2018-06-02T06:40:44.028Z,19.25
2018-06-02T06:43:15.432Z,19.31
2018-06-02T07:58:42.531Z,21.49
2018-06-02T08:01:13.694Z,21.31
2018-06-02T08:03:45.025Z,21.31
2018-06-02T08:06:16.278Z,21.26
2018-06-02T08:08:48.331Z,21.17
2018-06-02T08:11:19.964Z,21.04
2018-06-02T08:13:54.964Z,21.00
2018-06-02T08:16:26.025Z,21.08
2018-06-02T08:18:57.652Z,21.04
2018-06-02T08:21:30.884Z,21.02
2018-06-02T08:24:01.986Z,21.00
2018-06-02T08:26:33.472Z,21.12
2018-06-02T08:29:04.518Z,21.21
2018-06-02T08:31:35.552Z,21.24
2018-06-02T08:34:06.783Z,21.43
2018-06-02T08:36:37.828Z,21.57
2018-06-02T08:39:09.255Z,21.62
2018-06-02T08:41:40.328Z,21.76
2018-06-02T08:44:11.846Z,23.29
2018-06-02T08:46:43.072Z,23.97
2018-06-02T08:49:14.250Z,24.34
2018-06-02T08:51:46.436Z,24.73
2018-06-02T08:54:18.862Z,24.32
2018-06-02T08:56:50.076Z,24.53
2018-06-02T08:59:21.117Z,24.27
2018-06-02T09:01:52.312Z,25.14
2018-06-02T09:04:23.518Z,25.55
2018-06-02T09:06:54.734Z,24.95
2018-06-02T09:09:26.369Z,24.37
2018-06-02T09:11:57.529Z,24.01
2018-06-02T09:14:28.738Z,23.72
2018-06-02T09:17:00.256Z,23.48
2018-06-02T09:19:34.446Z,23.09
2018-06-02T09:22:05.639Z,22.96
2018-06-02T09:24:36.868Z,22.95
2018-06-02T09:27:07.908Z,22.83
2018-06-02T09:29:38.984Z,22.81
2018-06-02T09:32:10.164Z,22.64
2018-06-02T09:34:41.680Z,22.82
2018-06-02T09:37:12.897Z,23.04
2018-06-02T09:39:45.869Z,23.20
2018-06-02T09:42:23.724Z,23.57
2018-06-02T09:44:55.640Z,23.72
2018-06-02T09:47:26.755Z,23.96
2018-06-02T09:49:57.872Z,23.93
2018-06-02T09:52:30.625Z,23.96
2018-06-02T09:55:02.424Z,23.90
2018-06-02T09:57:34.287Z,23.69
2018-06-02T10:00:11.386Z,23.41
2018-06-02T10:02:42.736Z,23.99
2018-06-02T10:05:13.900Z,24.11
2018-06-02T10:07:46.333Z,23.98
2018-06-02T10:10:17.804Z,24.29
2018-06-02T10:12:49.183Z,23.96
2018-06-02T10:15:20.316Z,23.54
2018-06-02T10:17:51.317Z,23.38
2018-06-02T10:20:24.487Z,22.74
2018-06-02T10:22:55.521Z,22.63
2018-06-02T10:25:26.633Z,22.52
2018-06-02T10:28:00.338Z,22.34
2018-06-02T10:30:31.429Z,22.42
2018-06-02T10:33:03.093Z,22.15
2018-06-02T10:35:36.047Z,22.01
2018-06-02T10:38:07.553Z,21.99
2018-06-02T10:40:38.982Z,21.99
2018-06-02T10:43:11.765Z,21.90
2018-06-02T10:45:42.898Z,21.86
2018-06-02T10:48:14.099Z,21.81
2018-06-02T10:50:45.733Z,21.84
2018-06-02T10:53:19.050Z,22.09
2018-06-02T10:55:50.931Z,22.19
2018-06-02T10:58:24.862Z,22.23
2018-06-02T11:00:56.217Z,22.52
2018-06-02T11:03:32.569Z,23.12
2018-06-02T11:06:03.945Z,23.88
2018-06-02T11:08:35.342Z,24.92
2018-06-02T11:11:07.015Z,25.91
2018-06-02T11:13:38.487Z,26.30
2018-06-02T11:16:10.201Z,25.72
2018-06-02T11:18:41.438Z,25.24
2018-06-02T11:21:12.610Z,24.77
2018-06-02T11:23:43.769Z,24.60
2018-06-02T11:26:14.833Z,24.21
2018-06-02T11:31:40.999Z,24.20
2018-06-02T11:34:12.304Z,24.44
2018-06-02T11:36:43.425Z,26.24
2018-06-02T11:39:14.464Z,28.59
2018-06-02T11:41:45.918Z,30.41
2018-06-02T11:44:17.052Z,31.76
2018-06-02T11:46:48.471Z,32.02
2018-06-02T11:49:19.572Z,32.69
2018-06-02T11:51:51.583Z,29.97
2018-06-02T11:54:22.708Z,28.00
2018-06-02T11:56:54.287Z,29.43
2018-06-02T11:59:26.123Z,31.09
2018-06-02T12:01:57.159Z,32.76
2018-06-02T12:04:28.760Z,32.51
2018-06-02T12:06:59.939Z,32.50
2018-06-02T12:09:31.066Z,31.56
2018-06-02T12:12:02.849Z,30.06
2018-06-02T12:14:34.306Z,28.99
2018-06-02T12:17:07.183Z,29.65
2018-06-02T12:19:39.076Z,29.18
2018-06-02T12:22:10.722Z,30.24
2018-06-02T12:24:43.761Z,31.55
2018-06-02T12:27:14.883Z,32.23
2018-06-02T12:29:46.916Z,31.51
2018-06-02T12:32:31.862Z,31.91
2018-06-02T12:35:27.186Z,31.02
2018-06-02T12:37:59.210Z,31.84
2018-06-02T12:40:32.343Z,31.69
2018-06-02T12:43:04.381Z,30.50
2018-06-02T12:45:35.514Z,28.83
2018-06-02T12:48:22.922Z,30.09
2018-06-02T12:50:54.680Z,32.54
2018-06-02T12:53:26.514Z,33.03
2018-06-02T12:55:58.943Z,33.35
2018-06-02T12:58:30.171Z,32.34
2018-06-02T13:01:01.719Z,31.87
2018-06-02T13:03:33.023Z,32.33
2018-06-02T13:06:04.187Z,34.86
2018-06-02T13:08:35.377Z,35.80
2018-06-02T13:11:08.063Z,36.56
2018-06-02T13:13:39.426Z,37.25
2018-06-02T13:16:10.672Z,37.53
2018-06-02T13:18:42.275Z,35.98
2018-06-02T13:21:13.684Z,35.39
2018-06-02T13:23:46.672Z,34.22
2018-06-02T13:26:19.132Z,31.58
2018-06-02T13:28:50.385Z,30.29
2018-06-02T13:31:21.484Z,30.98
2018-06-02T13:34:01.852Z,30.53
2018-06-02T13:36:34.354Z,28.45
2018-06-02T13:39:09.007Z,29.23
2018-06-02T13:41:40.047Z,31.07
2018-06-02T13:44:13.524Z,30.48
2018-06-02T13:46:46.177Z,30.67
2018-06-02T13:49:17.451Z,34.05
2018-06-02T13:51:49.088Z,35.95
2018-06-02T13:54:21.312Z,36.82
2018-06-02T13:56:58.018Z,37.56
2018-06-02T13:59:29.485Z,38.65
2018-06-02T14:02:02.385Z,38.37
2018-06-02T14:04:34.829Z,38.28
2018-06-02T14:07:06.794Z,38.23
2018-06-02T14:09:38.007Z,36.83
2018-06-02T14:12:13.322Z,36.12
2018-06-02T14:14:44.915Z,36.19
2018-06-02T14:17:18.575Z,36.58
2018-06-02T14:19:52.688Z,36.64
2018-06-02T14:22:23.967Z,37.58
2018-06-02T14:24:56.115Z,37.22
2018-06-02T14:27:27.555Z,36.42
2018-06-02T14:29:58.956Z,35.20
2018-06-02T14:32:32.084Z,34.27
2018-06-02T14:35:11.300Z,33.98
2018-06-02T14:37:42.590Z,34.42
2018-06-02T14:40:13.916Z,35.67
2018-06-02T14:42:46.245Z,35.34
2018-06-02T14:45:18.980Z,35.80
2018-06-02T14:47:52.659Z,35.86
2018-06-02T14:50:23.922Z,36.23
2018-06-02T14:52:56.395Z,36.39
2018-06-02T14:55:27.684Z,35.65
2018-06-02T14:58:17.232Z,34.63
2018-06-02T15:00:48.565Z,33.91
2018-06-02T15:03:20.618Z,34.35
2018-06-02T15:05:51.753Z,35.02
2018-06-02T15:08:44.175Z,35.50
2018-06-02T15:11:15.761Z,35.38
2018-06-02T15:13:46.832Z,35.27
2018-06-02T15:16:18.445Z,35.33
2018-06-02T15:18:56.890Z,35.46
2018-06-02T15:21:28.704Z,35.60
2018-06-02T15:24:00.433Z,35.19
2018-06-02T15:26:32.632Z,35.79
2018-06-02T15:29:04.681Z,35.70
2018-06-02T15:31:40.882Z,35.94
2018-06-02T15:34:12.304Z,35.52
2018-06-02T15:36:44.375Z,35.00
2018-06-02T15:39:17.083Z,32.99
2018-06-02T15:41:59.596Z,31.07
2018-06-02T15:44:30.793Z,30.02
2018-06-02T15:47:19.993Z,29.23
2018-06-02T15:49:51.425Z,28.89
2018-06-02T15:52:22.707Z,28.52
2018-06-02T15:55:20.410Z,28.01
2018-06-02T15:57:57.966Z,27.51
2018-06-02T16:00:29.133Z,27.56
2018-06-02T16:03:01.093Z,27.50
2018-06-02T16:05:32.172Z,27.57
2018-06-02T16:08:16.772Z,27.55
2018-06-02T16:10:47.895Z,27.68
2018-06-02T16:13:24.080Z,27.67
2018-06-02T16:15:55.901Z,27.63
2018-06-02T16:18:28.728Z,27.44
2018-06-02T16:21:08.403Z,27.41
2018-06-02T16:23:39.802Z,27.22
2018-06-02T16:26:20.692Z,27.10
2018-06-02T16:28:52.045Z,26.59
2018-06-02T16:31:23.439Z,26.46
2018-06-02T16:34:00.608Z,26.38
2018-06-02T16:36:32.539Z,26.05
2018-06-02T16:39:03.906Z,26.07
2018-06-02T16:41:35.404Z,26.21
2018-06-02T16:44:22.215Z,26.09
2018-06-02T16:46:53.657Z,25.89
2018-06-02T16:49:37.148Z,25.76
2018-06-02T16:52:08.573Z,25.82
2018-06-02T16:54:40.094Z,25.55
2018-06-02T16:57:11.530Z,25.36
2018-06-02T16:59:42.792Z,24.87
2018-06-02T17:02:15.325Z,24.89
2018-06-02T17:04:48.320Z,25.05
2018-06-02T17:07:19.701Z,25.00
2018-06-02T17:09:50.803Z,25.10
2018-06-02T17:12:22.105Z,25.22
2018-06-02T17:14:53.481Z,25.09
2018-06-02T17:17:24.843Z,25.03
2018-06-02T17:19:56.568Z,25.03
2018-06-02T17:22:27.839Z,24.92
2018-06-02T17:24:59.589Z,24.96
2018-06-02T17:27:30.704Z,25.07
2018-06-02T17:30:12.908Z,24.88
2018-06-02T17:32:44.406Z,24.82
2018-06-02T17:35:15.740Z,24.76
2018-06-02T17:37:47.194Z,24.75
2018-06-02T17:40:18.653Z,24.75
2018-06-02T17:42:49.837Z,24.88
2018-06-02T17:45:21.251Z,24.78
2018-06-02T17:47:52.805Z,24.72
2018-06-02T17:50:24.793Z,24.67
2018-06-02T17:52:55.981Z,24.59
2018-06-02T17:55:32.827Z,24.49
2018-06-02T17:58:04.434Z,24.30
2018-06-02T18:00:35.869Z,24.03
2018-06-02T18:03:08.118Z,23.94
2018-06-02T18:05:39.309Z,23.76
2018-06-02T18:08:10.504Z,23.68
2018-06-02T18:10:42.056Z,23.63
2018-06-02T18:13:19.372Z,23.67
2018-06-02T18:15:50.734Z,23.60
2018-06-02T18:18:22.171Z,23.59
2018-06-02T18:20:58.361Z,23.65
2018-06-02T18:23:29.482Z,23.55
2018-06-02T18:26:00.585Z,23.38
2018-06-02T18:28:31.783Z,23.27
2018-06-02T18:31:03.001Z,23.30
2018-06-02T18:33:34.200Z,23.28
2018-06-02T18:36:08.332Z,23.26
2018-06-02T18:38:40.750Z,23.00
2018-06-02T18:43:57.796Z,22.67
2018-06-02T18:46:28.917Z,22.48
2018-06-02T18:49:12.191Z,22.28
2018-06-02T18:52:01.962Z,22.09
2018-06-02T18:54:33.307Z,21.96
2018-06-02T18:57:18.099Z,21.80
2018-06-02T18:59:51.480Z,21.69
2018-06-02T19:02:23.162Z,21.55
2018-06-02T19:04:56.023Z,21.48
2018-06-02T19:07:27.452Z,21.38
2018-06-02T19:09:58.676Z,21.24
2018-06-02T19:12:30.150Z,21.10
2018-06-02T19:15:01.279Z,21.10
2018-06-02T19:17:46.657Z,20.93
2018-06-02T19:23:01.415Z,20.58
2018-06-02T19:25:39.584Z,20.52
2018-06-02T19:28:13.980Z,20.46
2018-06-02T19:30:47.827Z,20.31
2018-06-02T19:33:20.637Z,20.28
2018-06-02T19:35:52.348Z,20.23
2018-06-02T19:38:23.600Z,20.22
2018-06-02T19:40:56.347Z,20.17
2018-06-02T19:43:27.627Z,20.03
2018-06-02T19:45:58.746Z,19.99
2018-06-02T19:48:31.711Z,19.90
2018-06-02T19:51:03.018Z,19.81
2018-06-02T19:53:34.610Z,19.79
2018-06-02T19:56:09.777Z,19.84
2018-06-02T19:58:42.221Z,19.87
2018-06-02T20:06:18.947Z,19.92
2018-06-02T20:08:52.086Z,19.76
2018-06-02T20:11:49.359Z,19.78
2018-06-02T20:14:22.708Z,19.78
2018-06-02T20:17:12.474Z,19.83
2018-06-02T20:19:46.778Z,19.75
2018-06-02T20:22:20.203Z,19.75
2018-06-02T20:24:52.991Z,19.64
2018-06-02T20:27:24.374Z,19.64
2018-06-02T20:29:55.565Z,19.71
2018-06-02T20:32:26.820Z,19.65
2018-06-02T20:38:48.660Z,19.54
2018-06-02T20:57:11.972Z,19.58
2018-06-02T20:59:46.335Z,19.54
2018-06-02T21:02:20.249Z,19.52
2018-06-02T21:05:04.310Z,19.49
2018-06-02T21:10:25.748Z,19.47
2018-06-02T21:13:06.379Z,19.44
2018-06-02T21:36:29.976Z,18.88
2018-06-02T21:39:14.235Z,18.79
2018-06-02T21:42:00.172Z,18.79
2018-06-02T22:13:58.077Z,18.28
2018-06-02T22:16:30.499Z,18.27
2018-06-02T22:24:31.795Z,18.04
2018-06-02T22:29:52.959Z,18.01
2018-06-02T22:32:32.089Z,17.99
2018-06-02T22:38:00.973Z,17.88
2018-06-02T22:40:33.038Z,17.84
2018-06-02T22:43:06.595Z,17.77
2018-06-02T22:45:39.090Z,17.74
2018-06-02T22:48:12.700Z,17.77
2018-06-02T22:50:44.030Z,17.82
2018-06-02T22:53:23.671Z,17.74
2018-06-02T22:55:56.488Z,17.58
2018-06-02T22:58:48.665Z,17.63
2018-06-02T23:01:21.282Z,17.56
2018-06-02T23:03:54.270Z,17.53
2018-06-02T23:06:31.711Z,17.48
2018-06-02T23:09:09.553Z,17.38
2018-06-02T23:14:53.439Z,17.19
2018-06-02T23:23:38.386Z,17.00
2018-06-02T23:26:24.549Z,16.95
2018-06-02T23:29:04.869Z,16.93
2018-06-02T23:45:33.227Z,16.73
2018-06-02T23:50:46.510Z,16.59
2018-06-02T23:53:18.149Z,16.57
2018-06-02T23:55:50.389Z,16.52
2018-06-02T23:58:32.077Z,16.58
